sensor_id;sensor_type;location;lat;lon;timestamp;P1;durP1;ratioP1;P2;durP2;ratioP2
47882;SDS011;37739;50.350;7.578;2023-04-22T00:01:50;2.80;;;2.60;;
47882;SDS011;37739;50.350;7.578;2023-04-22T00:04:15;2.70;;;2.50;;
47882;SDS011;37739;50.350;7.578;2023-04-22T00:06:41;2.57;;;2.37;;
47882;SDS011;37739;50.350;7.578;2023-04-22T00:09:06;2.80;;;2.60;;
47882;SDS011;37739;50.350;7.578;2023-04-22T00:11:34;3.10;;;2.47;;
47882;SDS011;37739;50.350;7.578;2023-04-22T00:14:02;2.70;;;2.50;;
47882;SDS011;37739;50.350;7.578;2023-04-22T00:16:27;2.73;;;2.53;;
47882;SDS011;37739;50.350;7.578;2023-04-22T00:18:52;4.37;;;3.40;;
47882;SDS011;37739;50.350;7.578;2023-04-22T00:21:20;2.97;;;2.77;;
47882;SDS011;37739;50.350;7.578;2023-04-22T00:23:45;3.73;;;2.93;;
47882;SDS011;37739;50.350;7.578;2023-04-22T00:26:11;2.60;;;2.40;;
47882;SDS011;37739;50.350;7.578;2023-04-22T00:28:39;2.83;;;2.63;;
47882;SDS011;37739;50.350;7.578;2023-04-22T00:31:09;3.40;;;2.80;;
47882;SDS011;37739;50.350;7.578;2023-04-22T00:33:34;2.83;;;2.50;;
47882;SDS011;37739;50.350;7.578;2023-04-22T00:36:04;3.50;;;3.00;;
47882;SDS011;37739;50.350;7.578;2023-04-22T00:38:30;2.90;;;2.63;;
47882;SDS011;37739;50.350;7.578;2023-04-22T00:40:57;2.97;;;2.53;;
47882;SDS011;37739;50.350;7.578;2023-04-22T00:43:23;2.70;;;2.50;;
47882;SDS011;37739;50.350;7.578;2023-04-22T00:45:51;2.13;;;2.00;;
47882;SDS011;37739;50.350;7.578;2023-04-22T00:48:19;2.70;;;2.50;;
47882;SDS011;37739;50.350;7.578;2023-04-22T00:50:53;3.10;;;2.77;;
47882;SDS011;37739;50.350;7.578;2023-04-22T00:53:18;2.63;;;2.40;;
47882;SDS011;37739;50.350;7.578;2023-04-22T00:55:44;2.90;;;2.70;;
47882;SDS011;37739;50.350;7.578;2023-04-22T00:58:11;2.80;;;2.47;;
47882;SDS011;37739;50.350;7.578;2023-04-22T01:00:37;3.10;;;2.80;;
47882;SDS011;37739;50.350;7.578;2023-04-22T01:03:04;3.10;;;2.90;;
47882;SDS011;37739;50.350;7.578;2023-04-22T01:05:31;2.97;;;2.70;;
47882;SDS011;37739;50.350;7.578;2023-04-22T01:08:01;2.90;;;2.60;;
47882;SDS011;37739;50.350;7.578;2023-04-22T01:10:27;2.57;;;2.30;;
47882;SDS011;37739;50.350;7.578;2023-04-22T01:12:55;2.50;;;2.30;;
47882;SDS011;37739;50.350;7.578;2023-04-22T01:15:20;2.80;;;2.60;;
47882;SDS011;37739;50.350;7.578;2023-04-22T01:17:46;3.40;;;3.10;;
47882;SDS011;37739;50.350;7.578;2023-04-22T01:20:11;4.80;;;3.10;;
47882;SDS011;37739;50.350;7.578;2023-04-22T01:22:41;3.03;;;2.83;;
47882;SDS011;37739;50.350;7.578;2023-04-22T01:25:11;3.40;;;3.10;;
47882;SDS011;37739;50.350;7.578;2023-04-22T01:27:41;3.30;;;3.10;;
47882;SDS011;37739;50.350;7.578;2023-04-22T01:30:09;3.63;;;3.33;;
47882;SDS011;37739;50.350;7.578;2023-04-22T01:32:38;4.13;;;3.60;;
47882;SDS011;37739;50.350;7.578;2023-04-22T01:35:04;3.80;;;3.50;;
47882;SDS011;37739;50.350;7.578;2023-04-22T01:37:30;4.10;;;3.80;;
47882;SDS011;37739;50.350;7.578;2023-04-22T01:39:58;4.20;;;3.90;;
47882;SDS011;37739;50.350;7.578;2023-04-22T01:42:26;4.10;;;3.80;;
47882;SDS011;37739;50.350;7.578;2023-04-22T01:44:54;4.47;;;4.10;;
47882;SDS011;37739;50.350;7.578;2023-04-22T01:47:22;4.80;;;4.40;;
47882;SDS011;37739;50.350;7.578;2023-04-22T01:49:47;4.77;;;4.37;;
47882;SDS011;37739;50.350;7.578;2023-04-22T01:52:16;3.93;;;3.63;;
47882;SDS011;37739;50.350;7.578;2023-04-22T01:54:41;4.40;;;4.00;;
47882;SDS011;37739;50.350;7.578;2023-04-22T01:57:10;5.10;;;4.20;;
47882;SDS011;37739;50.350;7.578;2023-04-22T01:59:38;4.87;;;4.47;;
47882;SDS011;37739;50.350;7.578;2023-04-22T02:02:06;4.13;;;3.70;;
47882;SDS011;37739;50.350;7.578;2023-04-22T02:04:33;4.60;;;4.20;;
47882;SDS011;37739;50.350;7.578;2023-04-22T02:06:59;4.23;;;3.90;;
47882;SDS011;37739;50.350;7.578;2023-04-22T02:09:25;4.40;;;4.00;;
47882;SDS011;37739;50.350;7.578;2023-04-22T02:11:50;4.50;;;4.10;;
47882;SDS011;37739;50.350;7.578;2023-04-22T02:14:18;4.50;;;4.10;;
47882;SDS011;37739;50.350;7.578;2023-04-22T02:16:43;3.97;;;3.67;;
47882;SDS011;37739;50.350;7.578;2023-04-22T02:19:09;4.63;;;3.67;;
47882;SDS011;37739;50.350;7.578;2023-04-22T02:21:34;4.20;;;3.90;;
47882;SDS011;37739;50.350;7.578;2023-04-22T02:24:04;4.40;;;4.00;;
47882;SDS011;37739;50.350;7.578;2023-04-22T02:26:30;6.57;;;4.33;;
47882;SDS011;37739;50.350;7.578;2023-04-22T02:28:57;5.80;;;5.30;;
47882;SDS011;37739;50.350;7.578;2023-04-22T02:31:23;4.87;;;4.30;;
47882;SDS011;37739;50.350;7.578;2023-04-22T02:33:51;4.83;;;4.43;;
47882;SDS011;37739;50.350;7.578;2023-04-22T02:36:16;4.47;;;4.07;;
47882;SDS011;37739;50.350;7.578;2023-04-22T02:38:44;4.83;;;4.43;;
47882;SDS011;37739;50.350;7.578;2023-04-22T02:41:11;5.40;;;4.90;;
47882;SDS011;37739;50.350;7.578;2023-04-22T02:43:37;4.73;;;4.33;;
47882;SDS011;37739;50.350;7.578;2023-04-22T02:46:02;5.30;;;4.80;;
47882;SDS011;37739;50.350;7.578;2023-04-22T02:48:30;4.07;;;3.77;;
47882;SDS011;37739;50.350;7.578;2023-04-22T02:50:55;3.80;;;3.47;;
47882;SDS011;37739;50.350;7.578;2023-04-22T02:53:20;4.30;;;4.00;;
47882;SDS011;37739;50.350;7.578;2023-04-22T02:55:48;4.83;;;4.43;;
47882;SDS011;37739;50.350;7.578;2023-04-22T02:58:16;4.67;;;4.27;;
47882;SDS011;37739;50.350;7.578;2023-04-22T03:00:44;4.10;;;3.80;;
47882;SDS011;37739;50.350;7.578;2023-04-22T03:03:09;4.27;;;3.90;;
47882;SDS011;37739;50.350;7.578;2023-04-22T03:05:34;4.70;;;3.60;;
47882;SDS011;37739;50.350;7.578;2023-04-22T03:08:00;3.53;;;3.23;;
47882;SDS011;37739;50.350;7.578;2023-04-22T03:10:27;4.43;;;4.07;;
47882;SDS011;37739;50.350;7.578;2023-04-22T03:12:53;3.60;;;3.30;;
47882;SDS011;37739;50.350;7.578;2023-04-22T03:15:18;3.40;;;3.10;;
47882;SDS011;37739;50.350;7.578;2023-04-22T03:17:43;4.20;;;3.80;;
47882;SDS011;37739;50.350;7.578;2023-04-22T03:20:13;3.37;;;3.07;;
47882;SDS011;37739;50.350;7.578;2023-04-22T03:22:41;4.03;;;3.63;;
47882;SDS011;37739;50.350;7.578;2023-04-22T03:25:11;3.97;;;3.67;;
47882;SDS011;37739;50.350;7.578;2023-04-22T03:27:43;4.17;;;3.77;;
47882;SDS011;37739;50.350;7.578;2023-04-22T03:30:11;3.83;;;3.33;;
47882;SDS011;37739;50.350;7.578;2023-04-22T03:32:36;3.67;;;3.37;;
47882;SDS011;37739;50.350;7.578;2023-04-22T03:35:07;4.43;;;3.40;;
47882;SDS011;37739;50.350;7.578;2023-04-22T03:37:32;4.20;;;3.30;;
47882;SDS011;37739;50.350;7.578;2023-04-22T03:39:57;4.03;;;3.37;;
47882;SDS011;37739;50.350;7.578;2023-04-22T03:42:23;3.70;;;3.40;;
47882;SDS011;37739;50.350;7.578;2023-04-22T03:44:48;3.50;;;3.20;;
47882;SDS011;37739;50.350;7.578;2023-04-22T03:47:13;3.63;;;3.33;;
47882;SDS011;37739;50.350;7.578;2023-04-22T03:49:39;3.43;;;3.13;;
47882;SDS011;37739;50.350;7.578;2023-04-22T03:52:04;4.67;;;3.93;;
47882;SDS011;37739;50.350;7.578;2023-04-22T03:54:32;3.47;;;3.17;;
47882;SDS011;37739;50.350;7.578;2023-04-22T03:57:00;3.43;;;3.13;;
47882;SDS011;37739;50.350;7.578;2023-04-22T03:59:25;3.27;;;3.07;;
47882;SDS011;37739;50.350;7.578;2023-04-22T04:01:53;3.90;;;3.60;;
47882;SDS011;37739;50.350;7.578;2023-04-22T04:04:18;3.90;;;3.50;;
47882;SDS011;37739;50.350;7.578;2023-04-22T04:06:44;3.77;;;3.47;;
47882;SDS011;37739;50.350;7.578;2023-04-22T04:09:12;3.20;;;2.90;;
47882;SDS011;37739;50.350;7.578;2023-04-22T04:11:37;3.60;;;3.30;;
47882;SDS011;37739;50.350;7.578;2023-04-22T04:14:02;3.70;;;3.40;;
47882;SDS011;37739;50.350;7.578;2023-04-22T04:16:28;5.17;;;3.10;;
47882;SDS011;37739;50.350;7.578;2023-04-22T04:18:53;3.60;;;3.30;;
47882;SDS011;37739;50.350;7.578;2023-04-22T04:21:18;4.33;;;3.87;;
47882;SDS011;37739;50.350;7.578;2023-04-22T04:23:46;4.90;;;3.60;;
47882;SDS011;37739;50.350;7.578;2023-04-22T04:26:14;4.10;;;3.70;;
47882;SDS011;37739;50.350;7.578;2023-04-22T04:28:39;4.10;;;3.70;;
47882;SDS011;37739;50.350;7.578;2023-04-22T04:31:05;4.00;;;3.70;;
47882;SDS011;37739;50.350;7.578;2023-04-22T04:33:31;4.20;;;3.70;;
47882;SDS011;37739;50.350;7.578;2023-04-22T04:35:57;4.43;;;3.40;;
47882;SDS011;37739;50.350;7.578;2023-04-22T04:38:25;4.80;;;4.40;;
47882;SDS011;37739;50.350;7.578;2023-04-22T04:40:51;4.33;;;3.90;;
47882;SDS011;37739;50.350;7.578;2023-04-22T04:43:19;4.90;;;4.40;;
47882;SDS011;37739;50.350;7.578;2023-04-22T04:45:49;4.20;;;3.90;;
47882;SDS011;37739;50.350;7.578;2023-04-22T04:48:19;4.90;;;4.40;;
47882;SDS011;37739;50.350;7.578;2023-04-22T04:50:48;4.80;;;4.40;;
47882;SDS011;37739;50.350;7.578;2023-04-22T04:53:20;4.77;;;4.33;;
47882;SDS011;37739;50.350;7.578;2023-04-22T04:55:46;5.10;;;4.60;;
47882;SDS011;37739;50.350;7.578;2023-04-22T04:58:14;4.50;;;4.10;;
47882;SDS011;37739;50.350;7.578;2023-04-22T05:00:39;4.07;;;3.77;;
47882;SDS011;37739;50.350;7.578;2023-04-22T05:03:05;5.63;;;5.13;;
47882;SDS011;37739;50.350;7.578;2023-04-22T05:05:30;4.57;;;4.17;;
47882;SDS011;37739;50.350;7.578;2023-04-22T05:07:55;4.83;;;4.43;;
47882;SDS011;37739;50.350;7.578;2023-04-22T05:10:21;4.93;;;4.43;;
47882;SDS011;37739;50.350;7.578;2023-04-22T05:12:46;5.40;;;4.90;;
47882;SDS011;37739;50.350;7.578;2023-04-22T05:15:17;4.03;;;3.63;;
47882;SDS011;37739;50.350;7.578;2023-04-22T05:17:45;6.13;;;5.53;;
47882;SDS011;37739;50.350;7.578;2023-04-22T05:20:12;4.63;;;4.20;;
47882;SDS011;37739;50.350;7.578;2023-04-22T05:22:38;4.83;;;4.33;;
47882;SDS011;37739;50.350;7.578;2023-04-22T05:25:07;4.30;;;4.00;;
47882;SDS011;37739;50.350;7.578;2023-04-22T05:27:33;5.20;;;4.70;;
47882;SDS011;37739;50.350;7.578;2023-04-22T05:29:58;5.10;;;4.70;;
47882;SDS011;37739;50.350;7.578;2023-04-22T05:32:23;6.67;;;5.20;;
47882;SDS011;37739;50.350;7.578;2023-04-22T05:34:53;4.67;;;4.27;;
47882;SDS011;37739;50.350;7.578;2023-04-22T05:37:19;5.63;;;5.17;;
47882;SDS011;37739;50.350;7.578;2023-04-22T05:39:44;4.70;;;4.30;;
47882;SDS011;37739;50.350;7.578;2023-04-22T05:42:10;4.67;;;4.03;;
47882;SDS011;37739;50.350;7.578;2023-04-22T05:44:35;6.10;;;4.90;;
47882;SDS011;37739;50.350;7.578;2023-04-22T05:47:05;6.30;;;5.60;;
47882;SDS011;37739;50.350;7.578;2023-04-22T05:49:30;6.13;;;5.53;;
47882;SDS011;37739;50.350;7.578;2023-04-22T05:51:55;5.27;;;4.87;;
47882;SDS011;37739;50.350;7.578;2023-04-22T05:54:25;5.60;;;5.10;;
47882;SDS011;37739;50.350;7.578;2023-04-22T05:56:53;5.20;;;4.57;;
47882;SDS011;37739;50.350;7.578;2023-04-22T05:59:19;5.53;;;5.03;;
47882;SDS011;37739;50.350;7.578;2023-04-22T06:01:47;7.00;;;5.20;;
47882;SDS011;37739;50.350;7.578;2023-04-22T06:04:17;5.60;;;4.97;;
47882;SDS011;37739;50.350;7.578;2023-04-22T06:06:45;5.50;;;5.00;;
47882;SDS011;37739;50.350;7.578;2023-04-22T06:09:11;5.17;;;4.70;;
47882;SDS011;37739;50.350;7.578;2023-04-22T06:11:39;5.30;;;4.80;;
47882;SDS011;37739;50.350;7.578;2023-04-22T06:14:07;5.23;;;4.83;;
47882;SDS011;37739;50.350;7.578;2023-04-22T06:16:34;6.20;;;4.40;;
47882;SDS011;37739;50.350;7.578;2023-04-22T06:19:02;4.83;;;4.43;;
47882;SDS011;37739;50.350;7.578;2023-04-22T06:21:30;4.90;;;4.50;;
47882;SDS011;37739;50.350;7.578;2023-04-22T06:23:58;5.00;;;4.60;;
47882;SDS011;37739;50.350;7.578;2023-04-22T06:26:25;4.77;;;4.37;;
47882;SDS011;37739;50.350;7.578;2023-04-22T06:28:50;4.40;;;4.00;;
47882;SDS011;37739;50.350;7.578;2023-04-22T06:31:19;5.77;;;4.40;;
47882;SDS011;37739;50.350;7.578;2023-04-22T06:33:45;5.33;;;4.80;;
47882;SDS011;37739;50.350;7.578;2023-04-22T06:36:11;4.93;;;4.53;;
47882;SDS011;37739;50.350;7.578;2023-04-22T06:38:37;4.13;;;3.83;;
47882;SDS011;37739;50.350;7.578;2023-04-22T06:41:04;4.90;;;4.20;;
47882;SDS011;37739;50.350;7.578;2023-04-22T06:43:32;4.37;;;3.97;;
47882;SDS011;37739;50.350;7.578;2023-04-22T06:45:58;4.57;;;4.17;;
47882;SDS011;37739;50.350;7.578;2023-04-22T06:48:28;5.63;;;4.00;;
47882;SDS011;37739;50.350;7.578;2023-04-22T06:50:53;4.90;;;4.40;;
47882;SDS011;37739;50.350;7.578;2023-04-22T06:53:21;4.40;;;4.00;;
47882;SDS011;37739;50.350;7.578;2023-04-22T06:55:49;4.57;;;4.17;;
47882;SDS011;37739;50.350;7.578;2023-04-22T06:58:17;4.10;;;3.80;;
47882;SDS011;37739;50.350;7.578;2023-04-22T07:00:45;4.50;;;4.10;;
47882;SDS011;37739;50.350;7.578;2023-04-22T07:03:10;4.90;;;3.40;;
47882;SDS011;37739;50.350;7.578;2023-04-22T07:05:37;3.83;;;3.53;;
47882;SDS011;37739;50.350;7.578;2023-04-22T07:08:03;4.30;;;3.90;;
47882;SDS011;37739;50.350;7.578;2023-04-22T07:10:28;3.80;;;3.50;;
47882;SDS011;37739;50.350;7.578;2023-04-22T07:12:56;5.33;;;3.60;;
47882;SDS011;37739;50.350;7.578;2023-04-22T07:15:21;3.80;;;3.50;;
47882;SDS011;37739;50.350;7.578;2023-04-22T07:17:46;4.47;;;4.07;;
47882;SDS011;37739;50.350;7.578;2023-04-22T07:20:12;3.77;;;3.43;;
47882;SDS011;37739;50.350;7.578;2023-04-22T07:22:37;4.13;;;2.70;;
47882;SDS011;37739;50.350;7.578;2023-04-22T07:25:07;4.43;;;3.60;;
47882;SDS011;37739;50.350;7.578;2023-04-22T07:27:36;3.50;;;3.07;;
47882;SDS011;37739;50.350;7.578;2023-04-22T07:30:02;4.00;;;3.43;;
47882;SDS011;37739;50.350;7.578;2023-04-22T07:32:27;4.30;;;3.43;;
47882;SDS011;37739;50.350;7.578;2023-04-22T07:34:53;3.50;;;3.20;;
47882;SDS011;37739;50.350;7.578;2023-04-22T07:37:19;3.17;;;2.73;;
47882;SDS011;37739;50.350;7.578;2023-04-22T07:39:48;3.40;;;3.10;;
47882;SDS011;37739;50.350;7.578;2023-04-22T07:42:13;2.90;;;2.70;;
47882;SDS011;37739;50.350;7.578;2023-04-22T07:44:38;3.03;;;2.83;;
47882;SDS011;37739;50.350;7.578;2023-04-22T07:47:07;3.40;;;3.10;;
47882;SDS011;37739;50.350;7.578;2023-04-22T07:49:32;3.47;;;3.17;;
47882;SDS011;37739;50.350;7.578;2023-04-22T07:51:58;3.17;;;2.70;;
47882;SDS011;37739;50.350;7.578;2023-04-22T07:54:25;3.17;;;2.87;;
47882;SDS011;37739;50.350;7.578;2023-04-22T07:56:53;3.23;;;2.93;;
47882;SDS011;37739;50.350;7.578;2023-04-22T07:59:21;2.53;;;2.33;;
47882;SDS011;37739;50.350;7.578;2023-04-22T08:01:49;2.70;;;2.50;;
47882;SDS011;37739;50.350;7.578;2023-04-22T08:04:17;5.90;;;2.80;;
47882;SDS011;37739;50.350;7.578;2023-04-22T08:06:42;2.73;;;2.10;;
47882;SDS011;37739;50.350;7.578;2023-04-22T08:09:08;2.17;;;2.03;;
47882;SDS011;37739;50.350;7.578;2023-04-22T08:11:35;2.43;;;2.23;;
47882;SDS011;37739;50.350;7.578;2023-04-22T08:14:03;2.63;;;2.17;;
47882;SDS011;37739;50.350;7.578;2023-04-22T08:16:33;2.07;;;1.97;;
47882;SDS011;37739;50.350;7.578;2023-04-22T08:19:01;2.47;;;2.27;;
47882;SDS011;37739;50.350;7.578;2023-04-22T08:21:29;2.60;;;2.40;;
47882;SDS011;37739;50.350;7.578;2023-04-22T08:23:57;2.20;;;2.00;;
47882;SDS011;37739;50.350;7.578;2023-04-22T08:26:25;4.20;;;2.50;;
47882;SDS011;37739;50.350;7.578;2023-04-22T08:28:55;2.37;;;2.07;;
47882;SDS011;37739;50.350;7.578;2023-04-22T08:31:20;5.53;;;2.50;;
47882;SDS011;37739;50.350;7.578;2023-04-22T08:33:48;2.07;;;1.80;;
47882;SDS011;37739;50.350;7.578;2023-04-22T08:36:15;3.43;;;1.80;;
47882;SDS011;37739;50.350;7.578;2023-04-22T08:38:40;3.60;;;1.87;;
47882;SDS011;37739;50.350;7.578;2023-04-22T08:41:10;2.93;;;2.00;;
47882;SDS011;37739;50.350;7.578;2023-04-22T08:43:36;2.00;;;1.80;;
47882;SDS011;37739;50.350;7.578;2023-04-22T08:46:02;3.40;;;2.80;;
47882;SDS011;37739;50.350;7.578;2023-04-22T08:48:27;2.13;;;1.93;;
47882;SDS011;37739;50.350;7.578;2023-04-22T08:50:56;2.10;;;1.90;;
47882;SDS011;37739;50.350;7.578;2023-04-22T08:53:24;2.70;;;2.00;;
47882;SDS011;37739;50.350;7.578;2023-04-22T08:55:50;2.07;;;1.87;;
47882;SDS011;37739;50.350;7.578;2023-04-22T08:58:19;4.63;;;1.73;;
47882;SDS011;37739;50.350;7.578;2023-04-22T09:00:48;2.53;;;2.00;;
47882;SDS011;37739;50.350;7.578;2023-04-22T09:03:15;3.47;;;2.00;;
47882;SDS011;37739;50.350;7.578;2023-04-22T09:05:43;3.17;;;1.80;;
47882;SDS011;37739;50.350;7.578;2023-04-22T09:08:10;1.97;;;1.67;;
47882;SDS011;37739;50.350;7.578;2023-04-22T09:10:39;3.30;;;1.80;;
47882;SDS011;37739;50.350;7.578;2023-04-22T09:13:05;2.10;;;1.90;;
47882;SDS011;37739;50.350;7.578;2023-04-22T09:15:34;2.90;;;1.80;;
47882;SDS011;37739;50.350;7.578;2023-04-22T09:18:00;1.30;;;1.10;;
47882;SDS011;37739;50.350;7.578;2023-04-22T09:20:28;3.43;;;1.70;;
47882;SDS011;37739;50.350;7.578;2023-04-22T09:22:56;2.03;;;1.60;;
47882;SDS011;37739;50.350;7.578;2023-04-22T09:25:28;1.93;;;1.83;;
47882;SDS011;37739;50.350;7.578;2023-04-22T09:27:58;2.07;;;1.80;;
47882;SDS011;37739;50.350;7.578;2023-04-22T09:30:30;2.07;;;1.40;;
47882;SDS011;37739;50.350;7.578;2023-04-22T09:32:58;2.13;;;1.70;;
47882;SDS011;37739;50.350;7.578;2023-04-22T09:35:41;2.80;;;1.70;;
47882;SDS011;37739;50.350;7.578;2023-04-22T09:38:08;1.50;;;1.37;;
47882;SDS011;37739;50.350;7.578;2023-04-22T09:40:40;1.83;;;1.40;;
47882;SDS011;37739;50.350;7.578;2023-04-22T09:43:07;2.23;;;1.57;;
47882;SDS011;37739;50.350;7.578;2023-04-22T09:45:39;2.13;;;1.50;;
47882;SDS011;37739;50.350;7.578;2023-04-22T09:48:08;2.10;;;1.67;;
47882;SDS011;37739;50.350;7.578;2023-04-22T09:50:37;2.10;;;1.57;;
47882;SDS011;37739;50.350;7.578;2023-04-22T09:53:07;2.00;;;1.60;;
47882;SDS011;37739;50.350;7.578;2023-04-22T09:55:43;1.50;;;1.40;;
47882;SDS011;37739;50.350;7.578;2023-04-22T09:58:11;2.37;;;1.50;;
47882;SDS011;37739;50.350;7.578;2023-04-22T10:00:42;2.47;;;1.70;;
47882;SDS011;37739;50.350;7.578;2023-04-22T10:03:09;2.20;;;1.67;;
47882;SDS011;37739;50.350;7.578;2023-04-22T10:05:35;2.73;;;1.70;;
47882;SDS011;37739;50.350;7.578;2023-04-22T10:08:05;1.37;;;1.27;;
47882;SDS011;37739;50.350;7.578;2023-04-22T10:10:35;2.13;;;1.50;;
47882;SDS011;37739;50.350;7.578;2023-04-22T10:13:00;1.43;;;1.33;;
47882;SDS011;37739;50.350;7.578;2023-04-22T10:15:30;2.23;;;1.77;;
47882;SDS011;37739;50.350;7.578;2023-04-22T10:18:04;1.60;;;1.50;;
47882;SDS011;37739;50.350;7.578;2023-04-22T10:20:34;2.03;;;1.70;;
47882;SDS011;37739;50.350;7.578;2023-04-22T10:23:05;1.70;;;1.60;;
47882;SDS011;37739;50.350;7.578;2023-04-22T10:25:38;1.70;;;1.30;;
47882;SDS011;37739;50.350;7.578;2023-04-22T10:28:08;3.30;;;1.80;;
47882;SDS011;37739;50.350;7.578;2023-04-22T10:30:37;1.77;;;1.47;;
47882;SDS011;37739;50.350;7.578;2023-04-22T10:38:37;1.60;;;1.50;;
47882;SDS011;37739;50.350;7.578;2023-04-22T10:41:03;3.50;;;1.63;;
47882;SDS011;37739;50.350;7.578;2023-04-22T10:59:26;1.80;;;1.70;;
47882;SDS011;37739;50.350;7.578;2023-04-22T11:01:54;3.50;;;1.83;;
47882;SDS011;37739;50.350;7.578;2023-04-22T11:04:27;2.43;;;1.90;;
47882;SDS011;37739;50.350;7.578;2023-04-22T11:10:00;2.23;;;1.70;;
47882;SDS011;37739;50.350;7.578;2023-04-22T11:15:12;1.60;;;1.30;;
47882;SDS011;37739;50.350;7.578;2023-04-22T11:17:43;1.67;;;1.53;;
47882;SDS011;37739;50.350;7.578;2023-04-22T11:20:11;2.40;;;1.43;;
47882;SDS011;37739;50.350;7.578;2023-04-22T11:22:46;2.50;;;1.67;;
47882;SDS011;37739;50.350;7.578;2023-04-22T11:25:16;1.53;;;1.33;;
47882;SDS011;37739;50.350;7.578;2023-04-22T11:27:47;3.83;;;1.73;;
47882;SDS011;37739;50.350;7.578;2023-04-22T11:32:41;2.20;;;1.43;;
47882;SDS011;37739;50.350;7.578;2023-04-22T11:35:10;1.70;;;1.60;;
47882;SDS011;37739;50.350;7.578;2023-04-22T11:37:40;2.63;;;1.50;;
47882;SDS011;37739;50.350;7.578;2023-04-22T11:40:07;2.67;;;1.80;;
47882;SDS011;37739;50.350;7.578;2023-04-22T11:42:37;2.47;;;2.07;;
47882;SDS011;37739;50.350;7.578;2023-04-22T11:45:05;2.97;;;1.33;;
47882;SDS011;37739;50.350;7.578;2023-04-22T11:47:32;1.43;;;1.23;;
47882;SDS011;37739;50.350;7.578;2023-04-22T11:50:04;2.10;;;1.60;;
47882;SDS011;37739;50.350;7.578;2023-04-22T11:55:38;3.47;;;1.63;;
47882;SDS011;37739;50.350;7.578;2023-04-22T11:58:08;2.83;;;1.70;;
47882;SDS011;37739;50.350;7.578;2023-04-22T12:00:38;1.83;;;1.57;;
47882;SDS011;37739;50.350;7.578;2023-04-22T12:03:18;1.77;;;1.57;;
47882;SDS011;37739;50.350;7.578;2023-04-22T12:08:35;1.93;;;1.60;;
47882;SDS011;37739;50.350;7.578;2023-04-22T12:11:05;1.70;;;1.60;;
47882;SDS011;37739;50.350;7.578;2023-04-22T12:13:32;2.03;;;1.80;;
47882;SDS011;37739;50.350;7.578;2023-04-22T12:16:12;2.57;;;1.50;;
47882;SDS011;37739;50.350;7.578;2023-04-22T12:18:40;2.53;;;1.77;;
47882;SDS011;37739;50.350;7.578;2023-04-22T12:21:14;2.57;;;1.70;;
47882;SDS011;37739;50.350;7.578;2023-04-22T12:23:42;4.07;;;1.70;;
47882;SDS011;37739;50.350;7.578;2023-04-22T12:26:16;1.80;;;1.47;;
47882;SDS011;37739;50.350;7.578;2023-04-22T12:28:45;1.70;;;1.50;;
47882;SDS011;37739;50.350;7.578;2023-04-22T12:31:14;2.10;;;1.60;;
47882;SDS011;37739;50.350;7.578;2023-04-22T12:33:42;1.80;;;1.67;;
47882;SDS011;37739;50.350;7.578;2023-04-22T12:36:11;1.93;;;1.57;;
47882;SDS011;37739;50.350;7.578;2023-04-22T12:38:37;2.80;;;1.67;;
47882;SDS011;37739;50.350;7.578;2023-04-22T12:41:03;2.00;;;1.80;;
47882;SDS011;37739;50.350;7.578;2023-04-22T12:43:32;3.53;;;1.70;;
47882;SDS011;37739;50.350;7.578;2023-04-22T12:46:04;1.67;;;1.53;;
47882;SDS011;37739;50.350;7.578;2023-04-22T12:48:33;2.50;;;1.70;;
47882;SDS011;37739;50.350;7.578;2023-04-22T12:51:01;3.50;;;2.10;;
47882;SDS011;37739;50.350;7.578;2023-04-22T12:53:29;3.00;;;1.97;;
47882;SDS011;37739;50.350;7.578;2023-04-22T12:55:56;2.33;;;2.00;;
47882;SDS011;37739;50.350;7.578;2023-04-22T12:58:22;2.17;;;1.70;;
47882;SDS011;37739;50.350;7.578;2023-04-22T13:00:50;1.83;;;1.57;;
47882;SDS011;37739;50.350;7.578;2023-04-22T13:03:18;4.90;;;2.33;;
47882;SDS011;37739;50.350;7.578;2023-04-22T13:05:44;2.47;;;2.00;;
47882;SDS011;37739;50.350;7.578;2023-04-22T13:08:11;2.40;;;2.10;;
47882;SDS011;37739;50.350;7.578;2023-04-22T13:10:39;2.20;;;1.90;;
47882;SDS011;37739;50.350;7.578;2023-04-22T13:13:04;2.43;;;1.70;;
47882;SDS011;37739;50.350;7.578;2023-04-22T13:15:34;2.70;;;1.60;;
47882;SDS011;37739;50.350;7.578;2023-04-22T13:18:02;1.60;;;1.40;;
47882;SDS011;37739;50.350;7.578;2023-04-22T13:20:30;2.17;;;1.50;;
47882;SDS011;37739;50.350;7.578;2023-04-22T13:22:58;2.07;;;1.40;;
47882;SDS011;37739;50.350;7.578;2023-04-22T13:25:23;3.77;;;1.40;;
47882;SDS011;37739;50.350;7.578;2023-04-22T13:27:51;1.23;;;1.00;;
47882;SDS011;37739;50.350;7.578;2023-04-22T13:30:19;1.60;;;1.50;;
47882;SDS011;37739;50.350;7.578;2023-04-22T13:32:44;2.37;;;1.40;;
47882;SDS011;37739;50.350;7.578;2023-04-22T13:35:10;1.40;;;1.20;;
47882;SDS011;37739;50.350;7.578;2023-04-22T13:37:35;1.73;;;1.20;;
47882;SDS011;37739;50.350;7.578;2023-04-22T13:40:03;2.70;;;1.40;;
47882;SDS011;37739;50.350;7.578;2023-04-22T13:42:29;2.23;;;1.20;;
47882;SDS011;37739;50.350;7.578;2023-04-22T13:44:58;2.17;;;1.33;;
47882;SDS011;37739;50.350;7.578;2023-04-22T13:47:26;3.30;;;1.47;;
47882;SDS011;37739;50.350;7.578;2023-04-22T13:49:51;1.40;;;1.30;;
47882;SDS011;37739;50.350;7.578;2023-04-22T13:52:18;1.77;;;1.40;;
47882;SDS011;37739;50.350;7.578;2023-04-22T13:54:48;1.10;;;1.00;;
47882;SDS011;37739;50.350;7.578;2023-04-22T13:57:17;2.70;;;1.50;;
47882;SDS011;37739;50.350;7.578;2023-04-22T13:59:43;2.30;;;1.40;;
47882;SDS011;37739;50.350;7.578;2023-04-22T14:02:10;1.50;;;1.40;;
47882;SDS011;37739;50.350;7.578;2023-04-22T14:04:38;1.50;;;1.40;;
47882;SDS011;37739;50.350;7.578;2023-04-22T14:07:06;2.20;;;1.67;;
47882;SDS011;37739;50.350;7.578;2023-04-22T14:09:37;1.53;;;1.43;;
47882;SDS011;37739;50.350;7.578;2023-04-22T14:12:03;1.10;;;1.00;;
47882;SDS011;37739;50.350;7.578;2023-04-22T14:14:29;1.40;;;1.30;;
47882;SDS011;37739;50.350;7.578;2023-04-22T14:16:55;3.70;;;1.37;;
47882;SDS011;37739;50.350;7.578;2023-04-22T14:19:25;2.33;;;1.50;;
47882;SDS011;37739;50.350;7.578;2023-04-22T14:21:53;1.60;;;1.40;;
47882;SDS011;37739;50.350;7.578;2023-04-22T14:24:19;6.40;;;3.63;;
47882;SDS011;37739;50.350;7.578;2023-04-22T14:26:49;3.67;;;3.33;;
47882;SDS011;37739;50.350;7.578;2023-04-22T14:29:20;2.80;;;2.60;;
47882;SDS011;37739;50.350;7.578;2023-04-22T14:31:46;2.83;;;1.70;;
47882;SDS011;37739;50.350;7.578;2023-04-22T14:34:16;2.07;;;1.60;;
47882;SDS011;37739;50.350;7.578;2023-04-22T14:36:42;4.20;;;1.30;;
47882;SDS011;37739;50.350;7.578;2023-04-22T14:39:07;1.70;;;1.40;;
47882;SDS011;37739;50.350;7.578;2023-04-22T14:41:33;2.30;;;1.70;;
47882;SDS011;37739;50.350;7.578;2023-04-22T14:43:59;1.43;;;1.33;;
47882;SDS011;37739;50.350;7.578;2023-04-22T14:46:26;1.87;;;1.40;;
47882;SDS011;37739;50.350;7.578;2023-04-22T14:48:51;1.57;;;1.30;;
47882;SDS011;37739;50.350;7.578;2023-04-22T14:51:17;1.97;;;1.37;;
47882;SDS011;37739;50.350;7.578;2023-04-22T14:53:44;2.20;;;1.90;;
47882;SDS011;37739;50.350;7.578;2023-04-22T14:56:10;1.43;;;1.30;;
47882;SDS011;37739;50.350;7.578;2023-04-22T14:58:37;1.57;;;1.47;;
47882;SDS011;37739;50.350;7.578;2023-04-22T15:01:03;1.27;;;1.07;;
47882;SDS011;37739;50.350;7.578;2023-04-22T15:03:28;3.40;;;1.70;;
47882;SDS011;37739;50.350;7.578;2023-04-22T15:05:54;1.53;;;1.43;;
47882;SDS011;37739;50.350;7.578;2023-04-22T15:08:22;1.60;;;1.30;;
47882;SDS011;37739;50.350;7.578;2023-04-22T15:10:50;3.00;;;1.20;;
47882;SDS011;37739;50.350;7.578;2023-04-22T15:13:18;1.80;;;1.40;;
47882;SDS011;37739;50.350;7.578;2023-04-22T15:15:46;2.30;;;1.37;;
47882;SDS011;37739;50.350;7.578;2023-04-22T15:18:11;1.70;;;1.37;;
47882;SDS011;37739;50.350;7.578;2023-04-22T15:20:37;1.73;;;1.20;;
47882;SDS011;37739;50.350;7.578;2023-04-22T15:23:02;2.03;;;1.10;;
47882;SDS011;37739;50.350;7.578;2023-04-22T15:25:28;1.30;;;1.10;;